sensor_id;sensor_type;location;lat;lon;timestamp;pressure;altitude;pressure_sealevel;temperature;humidity
86138;BME280;76796;49.056;15.810;2024-03-23T00:52:56;96081.00;;;11.22;nan
86138;BME280;76796;49.056;15.810;2024-03-23T00:55:24;96079.50;;;11.19;nan
86138;BME280;76796;49.056;15.810;2024-03-23T00:57:49;96080.50;;;11.18;nan
86138;BME280;76796;49.056;15.810;2024-03-23T01:00:15;96080.66;;;11.17;nan
86138;BME280;76796;49.056;15.810;2024-03-23T01:02:41;96079.97;;;11.14;nan
86138;BME280;76796;49.056;15.810;2024-03-23T01:05:13;96072.31;;;11.11;nan
86138;BME280;76796;49.056;15.810;2024-03-23T01:07:45;96069.81;;;11.10;nan
86138;BME280;76796;49.056;15.810;2024-03-23T01:10:10;96070.94;;;11.07;nan
86138;BME280;76796;49.056;15.810;2024-03-23T01:12:36;96068.44;;;11.06;nan
86138;BME280;76796;49.056;15.810;2024-03-23T01:15:01;96059.81;;;11.04;nan
86138;BME280;76796;49.056;15.810;2024-03-23T01:17:28;96050.19;;;11.03;nan
86138;BME280;76796;49.056;15.810;2024-03-23T01:19:54;96053.16;;;11.00;nan
86138;BME280;76796;49.056;15.810;2024-03-23T01:22:27;96047.19;;;10.98;nan
86138;BME280;76796;49.056;15.810;2024-03-23T01:24:53;96036.72;;;10.96;nan
86138;BME280;76796;49.056;15.810;2024-03-23T01:27:18;96024.47;;;10.95;nan
86138;BME280;76796;49.056;15.810;2024-03-23T01:29:44;96010.41;;;10.95;nan
86138;BME280;76796;49.056;15.810;2024-03-23T01:32:09;96007.91;;;10.93;nan
86138;BME280;76796;49.056;15.810;2024-03-23T01:34:35;96008.88;;;10.92;nan
86138;BME280;76796;49.056;15.810;2024-03-23T01:37:01;96010.69;;;10.92;nan
86138;BME280;76796;49.056;15.810;2024-03-23T01:39:33;96018.50;;;10.93;nan
86138;BME280;76796;49.056;15.810;2024-03-23T01:41:58;96025.47;;;10.94;nan
86138;BME280;76796;49.056;15.810;2024-03-23T01:44:24;96028.25;;;10.93;nan
86138;BME280;76796;49.056;15.810;2024-03-23T01:46:49;96022.97;;;10.93;nan
86138;BME280;76796;49.056;15.810;2024-03-23T01:49:15;96017.66;;;10.93;nan
86138;BME280;76796;49.056;15.810;2024-03-23T01:51:41;96010.56;;;10.93;nan
86138;BME280;76796;49.056;15.810;2024-03-23T01:54:08;96010.41;;;10.95;nan
86138;BME280;76796;49.056;15.810;2024-03-23T01:56:41;96004.28;;;10.94;nan
86138;BME280;76796;49.056;15.810;2024-03-23T01:59:07;96005.09;;;10.95;nan
86138;BME280;76796;49.056;15.810;2024-03-23T02:01:34;96009.84;;;10.91;nan
86138;BME280;76796;49.056;15.810;2024-03-23T02:04:07;96008.34;;;10.89;nan
86138;BME280;76796;49.056;15.810;2024-03-23T02:06:35;96012.13;;;10.86;nan
86138;BME280;76796;49.056;15.810;2024-03-23T02:09:00;96006.16;;;10.84;nan
86138;BME280;76796;49.056;15.810;2024-03-23T02:11:27;96004.47;;;10.83;nan
86138;BME280;76796;49.056;15.810;2024-03-23T02:14:00;96004.34;;;10.84;nan
86138;BME280;76796;49.056;15.810;2024-03-23T02:16:26;95991.78;;;10.87;nan
86138;BME280;76796;49.056;15.810;2024-03-23T02:18:51;95998.88;;;10.86;nan
86138;BME280;76796;49.056;15.810;2024-03-23T02:21:17;95994.41;;;10.87;nan
86138;BME280;76796;49.056;15.810;2024-03-23T02:23:42;95990.94;;;10.86;nan
86138;BME280;76796;49.056;15.810;2024-03-23T02:26:08;95984.81;;;10.85;nan
86138;BME280;76796;49.056;15.810;2024-03-23T02:28:33;95966.44;;;10.84;nan
86138;BME280;76796;49.056;15.810;2024-03-23T02:31:06;95964.75;;;10.83;nan
86138;BME280;76796;49.056;15.810;2024-03-23T02:33:31;95964.75;;;10.83;nan
86138;BME280;76796;49.056;15.810;2024-03-23T02:35:58;95960.47;;;10.82;nan
86138;BME280;76796;49.056;15.810;2024-03-23T02:38:23;95951.69;;;10.81;nan
86138;BME280;76796;49.056;15.810;2024-03-23T02:40:49;95954.19;;;10.83;nan
86138;BME280;76796;49.056;15.810;2024-03-23T02:43:15;95947.22;;;10.82;nan
86138;BME280;76796;49.056;15.810;2024-03-23T02:45:40;95946.22;;;10.83;nan
86138;BME280;76796;49.056;15.810;2024-03-23T02:48:16;95946.22;;;10.83;nan
86138;BME280;76796;49.056;15.810;2024-03-23T02:50:41;95947.22;;;10.82;nan
86138;BME280;76796;49.056;15.810;2024-03-23T02:53:07;95939.44;;;10.80;nan
86138;BME280;76796;49.056;15.810;2024-03-23T02:55:32;95931.47;;;10.80;nan
86138;BME280;76796;49.056;15.810;2024-03-23T02:57:58;95929.66;;;10.81;nan
86138;BME280;76796;49.056;15.810;2024-03-23T03:00:28;95929.66;;;10.81;nan
86138;BME280;76796;49.056;15.810;2024-03-23T03:02:53;95931.16;;;10.83;nan
86138;BME280;76796;49.056;15.810;2024-03-23T03:05:26;95924.75;;;10.86;nan
86138;BME280;76796;49.056;15.810;2024-03-23T03:07:58;95930.72;;;10.88;nan
86138;BME280;76796;49.056;15.810;2024-03-23T03:10:23;95913.84;;;10.89;nan
86138;BME280;76796;49.056;15.810;2024-03-23T03:12:49;95908.25;;;10.92;nan
86138;BME280;76796;49.056;15.810;2024-03-23T03:15:14;95915.06;;;10.95;nan
86138;BME280;76796;49.056;15.810;2024-03-23T03:17:40;95901.00;;;10.94;nan
86138;BME280;76796;49.056;15.810;2024-03-23T03:20:06;95905.63;;;10.92;nan
86138;BME280;76796;49.056;15.810;2024-03-23T03:22:38;95904.06;;;10.90;nan
86138;BME280;76796;49.056;15.810;2024-03-23T03:25:03;95899.91;;;10.87;nan
86138;BME280;76796;49.056;15.810;2024-03-23T03:27:30;95892.81;;;10.88;nan
86138;BME280;76796;49.056;15.810;2024-03-23T03:29:56;95897.13;;;10.89;nan
86138;BME280;76796;49.056;15.810;2024-03-23T03:32:21;95896.97;;;10.90;nan
86138;BME280;76796;49.056;15.810;2024-03-23T03:34:47;95889.72;;;10.92;nan
86138;BME280;76796;49.056;15.810;2024-03-23T03:37:12;95890.41;;;10.94;nan
86138;BME280;76796;49.056;15.810;2024-03-23T03:39:45;95880.47;;;10.96;nan
86138;BME280;76796;49.056;15.810;2024-03-23T03:42:10;95882.28;;;10.96;nan
86138;BME280;76796;49.056;15.810;2024-03-23T03:44:36;95890.75;;;10.99;nan
86138;BME280;76796;49.056;15.810;2024-03-23T03:47:02;95886.44;;;10.98;nan
86138;BME280;76796;49.056;15.810;2024-03-23T03:49:27;95884.63;;;10.99;nan
86138;BME280;76796;49.056;15.810;2024-03-23T03:51:53;95887.28;;;10.99;nan
86138;BME280;76796;49.056;15.810;2024-03-23T03:54:19;95883.13;;;10.96;nan
86138;BME280;76796;49.056;15.810;2024-03-23T03:56:51;95878.81;;;10.95;nan
86138;BME280;76796;49.056;15.810;2024-03-23T03:59:17;95868.53;;;10.92;nan
86138;BME280;76796;49.056;15.810;2024-03-23T04:01:42;95880.09;;;10.91;nan
86138;BME280;76796;49.056;15.810;2024-03-23T04:04:14;95868.16;;;10.87;nan
86138;BME280;76796;49.056;15.810;2024-03-23T04:06:43;95876.41;;;10.84;nan
86138;BME280;76796;49.056;15.810;2024-03-23T04:09:09;95871.41;;;10.81;nan
86138;BME280;76796;49.056;15.810;2024-03-23T04:11:35;95871.72;;;10.78;nan
86138;BME280;76796;49.056;15.810;2024-03-23T04:14:08;95868.41;;;10.76;nan
86138;BME280;76796;49.056;15.810;2024-03-23T04:16:34;95866.03;;;10.73;nan
86138;BME280;76796;49.056;15.810;2024-03-23T04:19:00;95869.81;;;10.70;nan
86138;BME280;76796;49.056;15.810;2024-03-23T04:21:27;95871.94;;;10.67;nan
86138;BME280;76796;49.056;15.810;2024-03-23T04:23:52;95865.97;;;10.65;nan
86138;BME280;76796;49.056;15.810;2024-03-23T04:26:18;95857.38;;;10.63;nan
86138;BME280;76796;49.056;15.810;2024-03-23T04:28:43;95852.50;;;10.58;nan
86138;BME280;76796;49.056;15.810;2024-03-23T04:31:16;95843.72;;;10.58;nan
86138;BME280;76796;49.056;15.810;2024-03-23T04:33:41;95839.44;;;10.57;nan
86138;BME280;76796;49.056;15.810;2024-03-23T04:36:07;95838.44;;;10.58;nan
86138;BME280;76796;49.056;15.810;2024-03-23T04:38:32;95839.16;;;10.60;nan
86138;BME280;76796;49.056;15.810;2024-03-23T04:40:59;95840.50;;;10.64;nan
86138;BME280;76796;49.056;15.810;2024-03-23T04:43:27;95845.28;;;10.60;nan
86138;BME280;76796;49.056;15.810;2024-03-23T04:45:53;95841.78;;;10.60;nan
86138;BME280;76796;49.056;15.810;2024-03-23T04:48:26;95842.78;;;10.59;nan
86138;BME280;76796;49.056;15.810;2024-03-23T04:50:55;95850.84;;;10.57;nan
86138;BME280;76796;49.056;15.810;2024-03-23T04:53:23;95844.88;;;10.55;nan
86138;BME280;76796;49.056;15.810;2024-03-23T04:55:56;95834.44;;;10.53;nan
86138;BME280;76796;49.056;15.810;2024-03-23T04:58:23;95831.28;;;10.50;nan
86138;BME280;76796;49.056;15.810;2024-03-23T05:00:55;95829.63;;;10.49;nan
86138;BME280;76796;49.056;15.810;2024-03-23T05:03:21;95828.78;;;10.48;nan
86138;BME280;76796;49.056;15.810;2024-03-23T05:05:53;95834.06;;;10.48;nan
86138;BME280;76796;49.056;15.810;2024-03-23T05:08:26;95825.16;;;10.49;nan
86138;BME280;76796;49.056;15.810;2024-03-23T05:10:52;95821.53;;;10.50;nan
86138;BME280;76796;49.056;15.810;2024-03-23T05:13:17;95825.69;;;10.53;nan
86138;BME280;76796;49.056;15.810;2024-03-23T05:15:43;95828.84;;;10.57;nan
86138;BME280;76796;49.056;15.810;2024-03-23T05:18:08;95817.75;;;10.53;nan
86138;BME280;76796;49.056;15.810;2024-03-23T05:20:34;95820.69;;;10.50;nan
86138;BME280;76796;49.056;15.810;2024-03-23T05:23:07;95819.88;;;10.49;nan
86138;BME280;76796;49.056;15.810;2024-03-23T05:25:39;95828.78;;;10.48;nan
86138;BME280;76796;49.056;15.810;2024-03-23T05:28:04;95821.53;;;10.50;nan
86138;BME280;76796;49.056;15.810;2024-03-23T05:30:30;95819.56;;;10.52;nan
86138;BME280;76796;49.056;15.810;2024-03-23T05:32:56;95827.19;;;10.55;nan
86138;BME280;76796;49.056;15.810;2024-03-23T05:35:21;95823.41;;;10.58;nan
86138;BME280;76796;49.056;15.810;2024-03-23T05:37:47;95820.06;;;10.56;nan
86138;BME280;76796;49.056;15.810;2024-03-23T05:40:19;95820.53;;;10.51;nan
86138;BME280;76796;49.056;15.810;2024-03-23T05:42:44;95808.75;;;10.46;nan
86138;BME280;76796;49.056;15.810;2024-03-23T05:45:10;95811.88;;;10.41;nan
86138;BME280;76796;49.056;15.810;2024-03-23T05:47:36;95808.53;;;10.39;nan
86138;BME280;76796;49.056;15.810;2024-03-23T05:50:02;95801.72;;;10.37;nan
86138;BME280;76796;49.056;15.810;2024-03-23T05:52:29;95800.22;;;10.34;nan
86138;BME280;76796;49.056;15.810;2024-03-23T05:54:55;95793.25;;;10.33;nan
86138;BME280;76796;49.056;15.810;2024-03-23T05:57:28;95786.69;;;10.37;nan
86138;BME280;76796;49.056;15.810;2024-03-23T05:59:54;95787.06;;;10.42;nan
86138;BME280;76796;49.056;15.810;2024-03-23T06:02:20;95785.09;;;10.44;nan
86138;BME280;76796;49.056;15.810;2024-03-23T06:04:53;95791.75;;;10.48;nan
86138;BME280;76796;49.056;15.810;2024-03-23T06:07:18;95786.97;;;10.52;nan
86138;BME280;76796;49.056;15.810;2024-03-23T06:09:44;95781.34;;;10.55;nan
86138;BME280;76796;49.056;15.810;2024-03-23T06:12:09;95785.50;;;10.58;nan
86138;BME280;76796;49.056;15.810;2024-03-23T06:14:42;95788.88;;;10.60;nan
86138;BME280;76796;49.056;15.810;2024-03-23T06:17:07;95787.88;;;10.61;nan
86138;BME280;76796;49.056;15.810;2024-03-23T06:19:33;95785.75;;;10.64;nan
86138;BME280;76796;49.056;15.810;2024-03-23T06:21:59;95789.91;;;10.67;nan
86138;BME280;76796;49.056;15.810;2024-03-23T06:24:25;95781.78;;;10.68;nan
86138;BME280;76796;49.056;15.810;2024-03-23T06:26:50;95782.31;;;10.72;nan
86138;BME280;76796;49.056;15.810;2024-03-23T06:29:16;95775.75;;;10.76;nan
86138;BME280;76796;49.056;15.810;2024-03-23T06:31:53;95775.28;;;10.80;nan
86138;BME280;76796;49.056;15.810;2024-03-23T06:34:19;95774.94;;;10.83;nan
86138;BME280;76796;49.056;15.810;2024-03-23T06:36:47;95771.81;;;10.88;nan
86138;BME280;76796;49.056;15.810;2024-03-23T06:39:12;95777.78;;;10.90;nan
86138;BME280;76796;49.056;15.810;2024-03-23T06:41:50;95771.06;;;10.96;nan
86138;BME280;76796;49.056;15.810;2024-03-23T06:44:16;95777.53;;;11.01;nan
86138;BME280;76796;49.056;15.810;2024-03-23T06:46:43;95771.78;;;11.06;nan
86138;BME280;76796;49.056;15.810;2024-03-23T06:49:15;95764.03;;;11.12;nan
86138;BME280;76796;49.056;15.810;2024-03-23T06:51:41;95756.44;;;11.18;nan
86138;BME280;76796;49.056;15.810;2024-03-23T06:54:07;95753.16;;;11.24;nan
86138;BME280;76796;49.056;15.810;2024-03-23T06:56:32;95761.16;;;11.32;nan
86138;BME280;76796;49.056;15.810;2024-03-23T06:58:58;95759.34;;;11.40;nan
86138;BME280;76796;49.056;15.810;2024-03-23T07:01:24;95751.94;;;11.44;nan
86138;BME280;76796;49.056;15.810;2024-03-23T07:03:49;95747.63;;;11.51;nan
86138;BME280;76796;49.056;15.810;2024-03-23T07:06:22;95737.75;;;11.61;nan
86138;BME280;76796;49.056;15.810;2024-03-23T07:08:54;95735.25;;;11.68;nan
86138;BME280;76796;49.056;15.810;2024-03-23T07:11:23;95734.31;;;11.77;nan
86138;BME280;76796;49.056;15.810;2024-03-23T07:13:52;95719.41;;;11.84;nan
86138;BME280;76796;49.056;15.810;2024-03-23T07:16:20;95722.06;;;11.92;nan
86138;BME280;76796;49.056;15.810;2024-03-23T07:18:46;95705.00;;;12.03;nan
86138;BME280;76796;49.056;15.810;2024-03-23T07:21:11;95701.38;;;12.12;nan
86138;BME280;76796;49.056;15.810;2024-03-23T07:23:44;95709.16;;;12.22;nan
86138;BME280;76796;49.056;15.810;2024-03-23T07:26:13;95719.13;;;12.36;nan
86138;BME280;76796;49.056;15.810;2024-03-23T07:28:40;95716.31;;;12.46;nan
86138;BME280;76796;49.056;15.810;2024-03-23T07:31:11;95717.59;;;12.58;nan
86138;BME280;76796;49.056;15.810;2024-03-23T07:33:41;95713.63;;;12.70;nan
86138;BME280;76796;49.056;15.810;2024-03-23T07:36:07;95719.41;;;12.82;nan
86138;BME280;76796;49.056;15.810;2024-03-23T07:38:32;95714.56;;;12.93;nan
86138;BME280;76796;49.056;15.810;2024-03-23T07:41:14;95712.84;;;13.09;nan
86138;BME280;76796;49.056;15.810;2024-03-23T07:43:40;95704.53;;;13.20;nan
86138;BME280;76796;49.056;15.810;2024-03-23T07:46:06;95700.16;;;13.35;nan
86138;BME280;76796;49.056;15.810;2024-03-23T07:48:32;95701.44;;;13.47;nan
86138;BME280;76796;49.056;15.810;2024-03-23T07:51:04;95694.88;;;13.58;nan
86138;BME280;76796;49.056;15.810;2024-03-23T07:53:31;95684.03;;;13.68;nan
86138;BME280;76796;49.056;15.810;2024-03-23T07:55:59;95681.63;;;13.81;nan
86138;BME280;76796;49.056;15.810;2024-03-23T07:58:31;95677.53;;;13.93;nan
86138;BME280;76796;49.056;15.810;2024-03-23T08:01:04;95668.50;;;14.02;nan
86138;BME280;76796;49.056;15.810;2024-03-23T08:03:44;95664.25;;;14.16;nan
86138;BME280;76796;49.056;15.810;2024-03-23T08:06:17;95647.81;;;14.27;nan
86138;BME280;76796;49.056;15.810;2024-03-23T08:08:55;95637.22;;;14.42;nan
86138;BME280;76796;49.056;15.810;2024-03-23T08:11:30;95634.41;;;14.58;nan
86138;BME280;76796;49.056;15.810;2024-03-23T08:14:03;95624.41;;;14.75;nan
86138;BME280;76796;49.056;15.810;2024-03-23T08:16:30;95628.75;;;14.91;nan
86138;BME280;76796;49.056;15.810;2024-03-23T08:18:55;95607.03;;;15.09;nan
86138;BME280;76796;49.056;15.810;2024-03-23T08:21:28;95598.63;;;15.26;nan
86138;BME280;76796;49.056;15.810;2024-03-23T08:23:54;95595.94;;;15.41;nan
86138;BME280;76796;49.056;15.810;2024-03-23T08:26:19;95598.19;;;15.59;nan
86138;BME280;76796;49.056;15.810;2024-03-23T08:28:45;95597.56;;;15.78;nan
86138;BME280;76796;49.056;15.810;2024-03-23T08:31:17;95595.75;;;16.00;nan
86138;BME280;76796;49.056;15.810;2024-03-23T08:33:42;95604.94;;;16.19;nan
86138;BME280;76796;49.056;15.810;2024-03-23T08:36:09;95607.94;;;16.37;nan
86138;BME280;76796;49.056;15.810;2024-03-23T08:38:38;95602.53;;;16.59;nan
86138;BME280;76796;49.056;15.810;2024-03-23T08:41:08;95600.84;;;16.79;nan
86138;BME280;76796;49.056;15.810;2024-03-23T08:43:39;95587.97;;;16.96;nan
86138;BME280;76796;49.056;15.810;2024-03-23T08:46:06;95577.78;;;17.12;nan
86138;BME280;76796;49.056;15.810;2024-03-23T08:48:45;95580.94;;;17.29;nan
86138;BME280;76796;49.056;15.810;2024-03-23T08:51:13;95571.50;;;17.47;nan
86138;BME280;76796;49.056;15.810;2024-03-23T08:53:40;95565.38;;;17.59;nan
86138;BME280;76796;49.056;15.810;2024-03-23T08:56:06;95557.81;;;17.76;nan
86138;BME280;76796;49.056;15.810;2024-03-23T08:58:34;95557.84;;;17.89;nan
86138;BME280;76796;49.056;15.810;2024-03-23T09:01:10;95559.09;;;18.00;nan
86138;BME280;76796;49.056;15.810;2024-03-23T09:03:37;95540.31;;;18.13;nan
86138;BME280;76796;49.056;15.810;2024-03-23T09:06:11;95537.03;;;18.24;nan
86138;BME280;76796;49.056;15.810;2024-03-23T09:08:36;95527.53;;;18.35;nan
86138;BME280;76796;49.056;15.810;2024-03-23T09:11:06;95529.56;;;18.46;nan
86138;BME280;76796;49.056;15.810;2024-03-23T09:13:34;95520.28;;;18.55;nan
86138;BME280;76796;49.056;15.810;2024-03-23T09:16:09;95513.03;;;18.62;nan
86138;BME280;76796;49.056;15.810;2024-03-23T09:18:36;95494.91;;;18.71;nan
86138;BME280;76796;49.056;15.810;2024-03-23T09:21:11;95490.34;;;18.78;nan
86138;BME280;76796;49.056;15.810;2024-03-23T09:23:43;95484.53;;;18.88;nan
86138;BME280;76796;49.056;15.810;2024-03-23T09:26:09;95482.84;;;19.00;nan
86138;BME280;76796;49.056;15.810;2024-03-23T09:28:35;95476.59;;;19.06;nan
86138;BME280;76796;49.056;15.810;2024-03-23T09:31:07;95467.06;;;19.17;nan
86138;BME280;76796;49.056;15.810;2024-03-23T09:33:34;95469.69;;;19.23;nan
86138;BME280;76796;49.056;15.810;2024-03-23T09:36:04;95470.47;;;19.31;nan
86138;BME280;76796;49.056;15.810;2024-03-23T09:38:30;95461.19;;;19.33;nan
86138;BME280;76796;49.056;15.810;2024-03-23T09:41:07;95464.72;;;19.27;nan
86138;BME280;76796;49.056;15.810;2024-03-23T09:43:33;95457.97;;;19.18;nan
86138;BME280;76796;49.056;15.810;2024-03-23T09:46:02;95452.41;;;19.13;nan
86138;BME280;76796;49.056;15.810;2024-03-23T09:48:28;95458.44;;;19.08;nan
86138;BME280;76796;49.056;15.810;2024-03-23T09:50:54;95454.75;;;19.03;nan
86138;BME280;76796;49.056;15.810;2024-03-23T09:53:19;95450.22;;;18.97;nan
86138;BME280;76796;49.056;15.810;2024-03-23T09:55:45;95456.03;;;18.93;nan
86138;BME280;76796;49.056;15.810;2024-03-23T09:58:18;95449.28;;;18.84;nan
86138;BME280;76796;49.056;15.810;2024-03-23T10:00:44;95435.88;;;18.78;nan
86138;BME280;76796;49.056;15.810;2024-03-23T10:03:10;95434.28;;;18.70;nan
86138;BME280;76796;49.056;15.810;2024-03-23T10:05:43;95422.34;;;18.66;nan
86138;BME280;76796;49.056;15.810;2024-03-23T10:10:40;95413.44;;;18.59;nan
86138;BME280;76796;49.056;15.810;2024-03-23T10:13:06;95399.66;;;18.55;nan
86138;BME280;76796;49.056;15.810;2024-03-23T10:15:38;95409.97;;;18.52;nan
86138;BME280;76796;49.056;15.810;2024-03-23T10:18:30;95399.69;;;18.49;nan
86138;BME280;76796;49.056;15.810;2024-03-23T10:23:39;95389.38;;;18.46;nan
86138;BME280;76796;49.056;15.810;2024-03-23T10:26:22;95399.69;;;18.49;nan
86138;BME280;76796;49.056;15.810;2024-03-23T10:31:24;95388.94;;;18.55;nan
86138;BME280;76796;49.056;15.810;2024-03-23T10:33:50;95387.69;;;18.58;nan
86138;BME280;76796;49.056;15.810;2024-03-23T10:36:19;95387.25;;;18.61;nan
86138;BME280;76796;49.056;15.810;2024-03-23T10:38:46;95372.81;;;18.69;nan
86138;BME280;76796;49.056;15.810;2024-03-23T10:41:12;95375.28;;;18.70;nan
86138;BME280;76796;49.056;15.810;2024-03-23T10:43:38;95375.03;;;18.78;nan
86138;BME280;76796;49.056;15.810;2024-03-23T10:46:04;95371.94;;;18.81;nan
86138;BME280;76796;49.056;15.810;2024-03-23T10:48:36;95360.78;;;18.84;nan
86138;BME280;76796;49.056;15.810;2024-03-23T10:51:02;95369.25;;;18.81;nan
86138;BME280;76796;49.056;15.810;2024-03-23T10:53:28;95376.88;;;18.78;nan
86138;BME280;76796;49.056;15.810;2024-03-23T10:55:55;95378.56;;;18.72;nan
86138;BME280;76796;49.056;15.810;2024-03-23T10:58:28;95378.16;;;18.62;nan
86138;BME280;76796;49.056;15.810;2024-03-23T11:00:55;95374.53;;;18.50;nan
86138;BME280;76796;49.056;15.810;2024-03-23T11:03:34;95393.28;;;18.50;nan
86138;BME280;76796;49.056;15.810;2024-03-23T11:06:06;95389.38;;;18.46;nan
86138;BME280;76796;49.056;15.810;2024-03-23T11:08:39;95390.00;;;18.41;nan
86138;BME280;76796;49.056;15.810;2024-03-23T11:11:22;95411.28;;;18.29;nan
86138;BME280;76796;49.056;15.810;2024-03-23T11:13:51;95410.72;;;18.08;nan
86138;BME280;76796;49.056;15.810;2024-03-23T11:16:27;95423.31;;;17.94;nan
86138;BME280;76796;49.056;15.810;2024-03-23T11:19:33;95517.66;;;17.69;nan
86138;BME280;76796;49.056;15.810;2024-03-23T11:22:05;95550.41;;;17.10;nan
86138;BME280;76796;49.056;15.810;2024-03-23T11:24:31;95531.03;;;16.61;nan
86138;BME280;76796;49.056;15.810;2024-03-23T11:26:57;95553.75;;;16.15;nan
86138;BME280;76796;49.056;15.810;2024-03-23T11:29:29;95535.91;;;15.67;nan
86138;BME280;76796;49.056;15.810;2024-03-23T11:31:55;95525.75;;;15.19;nan
86138;BME280;76796;49.056;15.810;2024-03-23T11:34:21;95541.38;;;14.71;nan
86138;BME280;76796;49.056;15.810;2024-03-23T11:36:47;95531.97;;;14.17;nan
86138;BME280;76796;49.056;15.810;2024-03-23T11:39:20;95542.75;;;13.85;nan
86138;BME280;76796;49.056;15.810;2024-03-23T11:41:50;95538.47;;;13.62;nan
86138;BME280;76796;49.056;15.810;2024-03-23T11:44:20;95530.09;;;13.50;nan
86138;BME280;76796;49.056;15.810;2024-03-23T11:46:48;95553.72;;;13.45;nan
86138;BME280;76796;49.056;15.810;2024-03-23T11:49:21;95544.69;;;13.31;nan
86138;BME280;76796;49.056;15.810;2024-03-23T11:51:48;95559.38;;;13.19;nan
86138;BME280;76796;49.056;15.810;2024-03-23T11:54:14;95568.41;;;13.02;nan
86138;BME280;76796;49.056;15.810;2024-03-23T11:56:59;95559.13;;;12.98;nan
86138;BME280;76796;49.056;15.810;2024-03-23T11:59:35;95572.63;;;12.88;nan
86138;BME280;76796;49.056;15.810;2024-03-23T12:02:08;95570.84;;;12.80;nan
86138;BME280;76796;49.056;15.810;2024-03-23T12:04:42;95573.16;;;12.75;nan
86138;BME280;76796;49.056;15.810;2024-03-23T12:07:16;95568.19;;;12.72;nan
86138;BME280;76796;49.056;15.810;2024-03-23T12:10:07;95560.28;;;12.64;nan
86138;BME280;76796;49.056;15.810;2024-03-23T12:12:38;95566.41;;;12.64;nan
86138;BME280;76796;49.056;15.810;2024-03-23T12:15:07;95569.44;;;12.61;nan
86138;BME280;76796;49.056;15.810;2024-03-23T12:17:34;95568.75;;;12.59;nan
86138;BME280;76796;49.056;15.810;2024-03-23T12:20:00;95569.56;;;12.68;nan
86138;BME280;76796;49.056;15.810;2024-03-23T12:22:27;95588.78;;;12.70;nan
86138;BME280;76796;49.056;15.810;2024-03-23T12:24:54;95593.09;;;12.71;nan
86138;BME280;76796;49.056;15.810;2024-03-23T12:27:20;95582.13;;;12.74;nan
86138;BME280;76796;49.056;15.810;2024-03-23T12:29:52;95579.47;;;12.74;nan
86138;BME280;76796;49.056;15.810;2024-03-23T12:32:18;95582.00;;;12.68;nan
86138;BME280;76796;49.056;15.810;2024-03-23T12:34:44;95572.56;;;12.65;nan
86138;BME280;76796;49.056;15.810;2024-03-23T12:37:09;95565.94;;;12.61;nan
86138;BME280;76796;49.056;15.810;2024-03-23T12:39:35;95557.63;;;12.64;nan
86138;BME280;76796;49.056;15.810;2024-03-23T12:42:01;95568.72;;;12.68;nan
86138;BME280;76796;49.056;15.810;2024-03-23T12:44:28;95562.25;;;12.70;nan
86138;BME280;76796;49.056;15.810;2024-03-23T12:47:00;95564.13;;;12.61;nan
86138;BME280;76796;49.056;15.810;2024-03-23T12:49:26;95555.31;;;12.61;nan
86138;BME280;76796;49.056;15.810;2024-03-23T12:51:55;95531.91;;;12.64;nan
86138;BME280;76796;49.056;15.810;2024-03-23T12:54:22;95518.81;;;12.63;nan
86138;BME280;76796;49.056;15.810;2024-03-23T12:56:48;95508.19;;;12.55;nan
86138;BME280;76796;49.056;15.810;2024-03-23T12:59:14;95502.53;;;12.58;nan
86138;BME280;76796;49.056;15.810;2024-03-23T13:01:40;95517.31;;;12.60;nan
86138;BME280;76796;49.056;15.810;2024-03-23T13:04:12;95510.13;;;12.69;nan
86138;BME280;76796;49.056;15.810;2024-03-23T13:06:51;95522.06;;;12.73;nan
86138;BME280;76796;49.056;15.810;2024-03-23T13:09:16;95549.44;;;12.74;nan
86138;BME280;76796;49.056;15.810;2024-03-23T13:11:42;95532.47;;;12.83;nan
86138;BME280;76796;49.056;15.810;2024-03-23T13:14:08;95540.63;;;12.81;nan
86138;BME280;76796;49.056;15.810;2024-03-23T13:16:33;95529.66;;;12.84;nan
86138;BME280;76796;49.056;15.810;2024-03-23T13:18:59;95531.66;;;12.82;nan
86138;BME280;76796;49.056;15.810;2024-03-23T13:21:32;95519.84;;;12.85;nan
86138;BME280;76796;49.056;15.810;2024-03-23T13:23:58;95515.34;;;12.85;nan
86138;BME280;76796;49.056;15.810;2024-03-23T13:26:23;95511.59;;;12.80;nan
86138;BME280;76796;49.056;15.810;2024-03-23T13:28:49;95506.00;;;12.67;nan
86138;BME280;76796;49.056;15.810;2024-03-23T13:31:14;95499.97;;;12.73;nan
86138;BME280;76796;49.056;15.810;2024-03-23T13:33:40;95508.13;;;12.71;nan
86138;BME280;76796;49.056;15.810;2024-03-23T13:36:07;95516.09;;;12.71;nan
86138;BME280;76796;49.056;15.810;2024-03-23T13:38:39;95518.28;;;12.68;nan
86138;BME280;76796;49.056;15.810;2024-03-23T13:41:05;95519.81;;;12.62;nan
86138;BME280;76796;49.056;15.810;2024-03-23T13:43:32;95534.91;;;12.61;nan
86138;BME280;76796;49.056;15.810;2024-03-23T13:45:58;95527.94;;;12.60;nan
86138;BME280;76796;49.056;15.810;2024-03-23T13:48:28;95535.09;;;12.52;nan
86138;BME280;76796;49.056;15.810;2024-03-23T13:50:58;95546.53;;;12.52;nan
86138;BME280;76796;49.056;15.810;2024-03-23T13:53:23;95544.41;;;12.48;nan
86138;BME280;76796;49.056;15.810;2024-03-23T13:55:55;95516.06;;;12.40;nan
86138;BME280;76796;49.056;15.810;2024-03-23T13:58:21;95505.25;;;12.42;nan
86138;BME280;76796;49.056;15.810;2024-03-23T14:00:47;95494.53;;;12.35;nan
86138;BME280;76796;49.056;15.810;2024-03-23T14:03:13;95512.28;;;12.34;nan
86138;BME280;76796;49.056;15.810;2024-03-23T14:05:40;95513.97;;;12.27;nan
86138;BME280;76796;49.056;15.810;2024-03-23T14:08:12;95538.00;;;12.34;nan
86138;BME280;76796;49.056;15.810;2024-03-23T14:10:44;95547.47;;;12.28;nan
86138;BME280;76796;49.056;15.810;2024-03-23T14:13:16;95562.38;;;12.29;nan
86138;BME280;76796;49.056;15.810;2024-03-23T14:15:45;95571.53;;;12.27;nan